createdAt,value
2022-11-13T00:02:09.575Z,30.13
2022-11-13T00:04:56.095Z,31.63
2022-11-13T00:07:42.604Z,30.30
2022-11-13T00:10:29.166Z,32.93
2022-11-13T00:13:15.772Z,30.97
2022-11-13T00:16:08.023Z,30.13
2022-11-13T00:18:54.215Z,30.97
2022-11-13T00:21:40.785Z,26.83
2022-11-13T00:24:27.359Z,30.00
2022-11-13T00:27:14.255Z,30.97
2022-11-13T00:30:00.516Z,32.63
2022-11-13T00:32:47.153Z,33.30
2022-11-13T00:35:33.848Z,31.80
2022-11-13T00:38:20.694Z,30.77
2022-11-13T00:41:07.150Z,29.30
2022-11-13T00:43:54.347Z,28.60
2022-11-13T00:46:40.863Z,28.50
2022-11-13T00:49:27.464Z,28.23
2022-11-13T00:52:13.787Z,27.13
2022-11-13T00:55:00.286Z,29.77
2022-11-13T00:57:46.278Z,32.10
2022-11-13T01:00:33.515Z,28.53
2022-11-13T01:03:19.950Z,29.67
2022-11-13T01:06:15.253Z,31.60
2022-11-13T01:09:01.626Z,30.87
2022-11-13T01:11:48.048Z,29.93
2022-11-13T01:14:34.139Z,27.47
2022-11-13T01:17:21.448Z,31.03
2022-11-13T01:20:07.893Z,28.00
2022-11-13T01:22:54.414Z,29.37
2022-11-13T01:25:41.026Z,29.50
2022-11-13T01:28:27.995Z,28.13
2022-11-13T01:31:16.981Z,29.37
2022-11-13T01:34:03.419Z,28.30
2022-11-13T01:36:49.860Z,30.93
2022-11-13T01:39:36.179Z,29.40
2022-11-13T01:42:22.717Z,28.23
2022-11-13T01:45:47.499Z,27.13
2022-11-13T01:48:40.197Z,30.27
2022-11-13T01:51:36.536Z,27.50
2022-11-13T01:54:53.120Z,29.80
2022-11-13T01:57:39.752Z,29.23
2022-11-13T02:00:26.154Z,29.23
2022-11-13T02:03:12.814Z,30.63
2022-11-13T02:05:59.158Z,29.93
2022-11-13T02:08:45.696Z,29.00
2022-11-13T02:11:32.150Z,30.60
2022-11-13T02:14:18.532Z,29.97
2022-11-13T02:17:06.551Z,27.77
2022-11-13T02:19:58.797Z,30.10
2022-11-13T02:23:02.511Z,31.23
2022-11-13T02:25:52.276Z,27.83
2022-11-13T02:28:38.608Z,29.53
2022-11-13T02:31:25.090Z,30.87
2022-11-13T02:34:11.340Z,29.53
2022-11-13T02:36:58.224Z,30.63
2022-11-13T02:39:44.407Z,28.47
2022-11-13T02:42:30.682Z,30.30
2022-11-13T02:45:17.025Z,30.97
2022-11-13T02:48:03.205Z,33.70
2022-11-13T02:50:49.651Z,32.30
2022-11-13T02:53:36.176Z,28.47
2022-11-13T02:56:22.457Z,27.77
2022-11-13T02:59:09.183Z,29.23
2022-11-13T03:01:55.590Z,29.60
2022-11-13T03:05:10.327Z,31.43
2022-11-13T03:07:47.749Z,34.33
2022-11-13T03:10:34.290Z,33.80
2022-11-13T03:13:20.905Z,32.90
2022-11-13T03:16:12.735Z,32.27
2022-11-13T03:18:58.871Z,34.50
2022-11-13T03:21:45.329Z,33.07
2022-11-13T03:24:31.515Z,33.13
2022-11-13T03:27:17.872Z,33.87
2022-11-13T03:30:04.244Z,30.37
2022-11-13T03:32:56.946Z,30.93
2022-11-13T03:35:46.931Z,32.47
2022-11-13T03:38:34.292Z,31.23
2022-11-13T03:41:20.963Z,29.10
2022-11-13T03:44:07.718Z,29.37
2022-11-13T03:46:54.145Z,29.07
2022-11-13T03:49:40.902Z,31.00
2022-11-13T03:52:27.352Z,33.13
2022-11-13T03:55:13.819Z,32.40
2022-11-13T03:58:00.222Z,29.40
2022-11-13T04:00:46.827Z,32.00
2022-11-13T04:03:33.461Z,32.80
2022-11-13T04:06:24.603Z,29.43
2022-11-13T04:09:11.324Z,31.60
2022-11-13T04:11:57.768Z,33.57
2022-11-13T04:14:44.432Z,31.73
2022-11-13T04:17:30.941Z,35.07
2022-11-13T04:20:17.474Z,29.97
2022-11-13T04:23:08.026Z,33.53
2022-11-13T04:25:54.209Z,31.73
2022-11-13T04:28:40.883Z,33.97
2022-11-13T04:31:27.256Z,32.37
2022-11-13T04:34:13.700Z,34.47
2022-11-13T04:36:59.843Z,32.83
2022-11-13T04:39:46.675Z,32.90
2022-11-13T04:42:51.305Z,33.27
2022-11-13T04:45:38.137Z,33.60
2022-11-13T04:48:24.458Z,33.67
2022-11-13T04:51:13.680Z,35.70
2022-11-13T04:54:00.387Z,32.73
2022-11-13T04:56:46.887Z,33.17
2022-11-13T04:59:33.109Z,34.73
2022-11-13T05:02:20.333Z,32.97
2022-11-13T05:05:06.994Z,35.83
2022-11-13T05:07:53.724Z,34.07
2022-11-13T05:10:40.300Z,33.20
2022-11-13T05:13:26.627Z,34.67
2022-11-13T05:16:15.121Z,34.27
2022-11-13T05:19:02.125Z,35.50
2022-11-13T05:21:48.496Z,37.40
2022-11-13T05:24:34.861Z,36.23
2022-11-13T05:27:20.906Z,36.97
2022-11-13T05:30:07.609Z,35.63
2022-11-13T05:32:53.968Z,34.93
2022-11-13T05:35:41.082Z,35.10
2022-11-13T05:38:28.949Z,34.57
2022-11-13T05:41:18.767Z,35.50
2022-11-13T05:44:04.800Z,33.73
2022-11-13T05:46:51.541Z,33.73
2022-11-13T05:49:37.794Z,36.87
2022-11-13T05:52:24.600Z,35.90
2022-11-13T05:55:10.844Z,34.27
2022-11-13T05:57:59.375Z,32.53
2022-11-13T06:00:46.257Z,32.87
2022-11-13T06:03:33.335Z,35.63
2022-11-13T06:06:21.059Z,36.60
2022-11-13T06:09:08.079Z,33.20
2022-11-13T06:11:54.620Z,32.20
2022-11-13T06:14:41.617Z,33.23
2022-11-13T06:17:27.992Z,33.60
2022-11-13T06:20:15.351Z,30.10
2022-11-13T06:23:01.414Z,32.30
2022-11-13T06:25:47.673Z,34.10
2022-11-13T06:28:34.757Z,34.27
2022-11-13T06:31:23.916Z,31.90
2022-11-13T06:34:10.338Z,35.37
2022-11-13T06:36:57.012Z,31.37
2022-11-13T06:39:43.386Z,32.37
2022-11-13T06:42:30.059Z,36.13
2022-11-13T06:45:16.242Z,36.00
2022-11-13T06:48:03.349Z,36.40
2022-11-13T06:50:49.419Z,35.23
2022-11-13T06:53:36.348Z,35.53
2022-11-13T06:56:23.254Z,33.80
2022-11-13T06:59:09.828Z,36.07
2022-11-13T07:01:56.417Z,35.90
2022-11-13T07:04:43.031Z,33.93
2022-11-13T07:07:29.515Z,31.13
2022-11-13T07:10:16.087Z,33.70
2022-11-13T07:13:02.607Z,32.03
2022-11-13T07:15:49.410Z,27.80
2022-11-13T07:18:36.087Z,28.40
2022-11-13T07:21:23.402Z,26.27
2022-11-13T07:24:15.519Z,25.33
2022-11-13T07:27:03.786Z,23.97
2022-11-13T07:29:50.256Z,25.47
2022-11-13T07:32:37.471Z,23.17
2022-11-13T07:35:23.909Z,24.53
2022-11-13T07:38:10.606Z,31.70
2022-11-13T07:40:59.275Z,28.50
2022-11-13T07:43:45.885Z,29.20
2022-11-13T07:46:32.421Z,27.93
2022-11-13T07:49:19.303Z,29.87
2022-11-13T07:52:05.857Z,26.70
2022-11-13T07:54:52.734Z,26.40
2022-11-13T07:57:39.398Z,26.77
2022-11-13T08:00:26.800Z,24.63
2022-11-13T08:03:16.171Z,25.23
2022-11-13T08:06:05.474Z,25.77
2022-11-13T08:08:51.937Z,26.90
2022-11-13T08:11:38.957Z,28.10
2022-11-13T08:14:25.473Z,28.37
2022-11-13T08:17:12.538Z,27.53
2022-11-13T08:19:58.953Z,30.90
2022-11-13T08:22:45.560Z,31.80
2022-11-13T08:25:32.274Z,33.57
2022-11-13T08:28:19.326Z,33.10
2022-11-13T08:31:06.069Z,32.70
2022-11-13T08:33:52.950Z,32.03
2022-11-13T08:36:39.761Z,29.10
2022-11-13T08:39:26.241Z,26.63
2022-11-13T08:42:12.709Z,25.27
2022-11-13T08:44:59.740Z,23.33
2022-11-13T08:47:45.988Z,25.73
2022-11-13T08:50:33.917Z,24.93
2022-11-13T08:53:20.708Z,24.57
2022-11-13T08:56:08.413Z,25.73
2022-11-13T08:58:55.116Z,24.00
2022-11-13T09:01:42.025Z,23.90
2022-11-13T09:04:29.388Z,22.33
2022-11-13T09:07:16.416Z,23.43
2022-11-13T09:10:02.831Z,23.30
2022-11-13T09:12:49.827Z,22.63
2022-11-13T09:15:38.426Z,23.97
2022-11-13T09:18:25.981Z,23.60
2022-11-13T09:21:12.205Z,21.93
2022-11-13T09:23:59.568Z,24.83
2022-11-13T09:26:45.753Z,23.80
2022-11-13T09:29:32.201Z,22.73
2022-11-13T09:32:19.627Z,23.93
2022-11-13T09:35:09.435Z,21.53
2022-11-13T09:37:56.022Z,23.37
2022-11-13T09:40:54.209Z,25.43
2022-11-13T09:43:48.958Z,25.03
2022-11-13T09:46:48.086Z,27.13
2022-11-13T09:49:38.094Z,34.90
2022-11-13T09:52:33.111Z,44.57
2022-11-13T09:55:23.470Z,39.57
2022-11-13T09:58:41.060Z,35.83
2022-11-13T10:01:37.113Z,36.00
2022-11-13T10:04:53.458Z,41.13
2022-11-13T10:07:48.059Z,35.37
2022-11-13T10:10:50.692Z,34.83
2022-11-13T10:13:54.639Z,34.37
2022-11-13T10:16:59.311Z,34.07
2022-11-13T10:19:58.926Z,35.33
2022-11-13T10:22:56.284Z,34.90
2022-11-13T10:25:44.479Z,35.17
2022-11-13T10:32:32.939Z,27.57
2022-11-13T10:35:23.406Z,27.17
2022-11-13T10:38:37.348Z,26.37
2022-11-13T10:41:23.872Z,28.03
2022-11-13T10:44:22.576Z,25.90
2022-11-13T10:47:26.399Z,28.83
2022-11-13T10:50:30.782Z,26.73
2022-11-13T10:53:20.930Z,23.97
2022-11-13T10:56:32.002Z,25.80
2022-11-13T10:59:19.999Z,22.83
2022-11-13T11:02:26.993Z,23.10
2022-11-13T11:05:24.990Z,22.73
2022-11-13T11:08:11.433Z,22.27
2022-11-13T11:11:20.146Z,18.97
2022-11-13T11:14:20.709Z,20.10
2022-11-13T11:17:09.290Z,20.97
2022-11-13T11:20:08.260Z,20.20
2022-11-13T11:23:06.618Z,20.40
2022-11-13T11:26:01.088Z,23.43
2022-11-13T11:29:10.267Z,22.27
2022-11-13T11:32:50.422Z,21.07
2022-11-13T11:35:39.623Z,22.77
2022-11-13T11:38:51.014Z,22.60
2022-11-13T11:41:44.634Z,21.57
2022-11-13T11:44:38.443Z,22.87
2022-11-13T11:47:25.076Z,22.33
2022-11-13T11:50:15.389Z,22.70
2022-11-13T11:53:14.118Z,21.73
2022-11-13T11:56:32.785Z,22.43
2022-11-13T11:59:31.513Z,23.80
2022-11-13T12:02:37.111Z,21.23
2022-11-13T12:05:49.069Z,21.33
2022-11-13T12:08:47.569Z,20.67
2022-11-13T12:11:35.512Z,19.07
2022-11-13T12:14:53.912Z,20.53
2022-11-13T12:17:53.981Z,19.80
2022-11-13T12:21:11.443Z,20.07
2022-11-13T12:24:01.905Z,19.10
2022-11-13T12:27:09.865Z,22.00
2022-11-13T12:30:17.392Z,21.07
2022-11-13T12:33:24.747Z,21.03
2022-11-13T12:36:14.840Z,22.63
2022-11-13T12:39:33.988Z,34.23
2022-11-13T12:42:40.742Z,26.60
2022-11-13T12:45:52.401Z,29.73
2022-11-13T12:48:41.016Z,23.63
2022-11-13T12:51:41.503Z,21.13
2022-11-13T12:54:31.506Z,21.20
2022-11-13T12:57:28.655Z,20.80
2022-11-13T13:00:27.684Z,16.43
2022-11-13T13:03:20.059Z,19.73
2022-11-13T13:06:07.040Z,17.43
2022-11-13T13:09:04.455Z,16.40
2022-11-13T13:12:09.274Z,12.47
2022-11-13T13:15:16.814Z,11.50
2022-11-13T13:18:12.693Z,11.20
2022-11-13T13:21:07.378Z,11.27
2022-11-13T13:23:54.923Z,10.77
2022-11-13T13:26:47.905Z,11.77
2022-11-13T13:29:36.856Z,11.47
2022-11-13T13:32:31.612Z,10.67
2022-11-13T13:35:27.536Z,11.10
2022-11-13T13:39:04.325Z,10.63
2022-11-13T13:42:12.269Z,10.67
2022-11-13T13:45:20.765Z,11.23
2022-11-13T13:48:16.696Z,11.10
2022-11-13T13:51:03.304Z,11.07
2022-11-13T13:53:50.608Z,11.20
2022-11-13T13:56:43.140Z,12.97
2022-11-13T13:59:37.187Z,13.67
2022-11-13T14:02:24.715Z,14.13
2022-11-13T14:05:33.595Z,14.33
2022-11-13T14:08:26.041Z,13.40
2022-11-13T14:11:30.312Z,14.87
2022-11-13T14:14:23.262Z,15.07
2022-11-13T14:17:12.216Z,16.77
2022-11-13T14:20:01.446Z,17.27
2022-11-13T14:22:56.366Z,17.50
2022-11-13T14:25:44.790Z,15.77
2022-11-13T14:28:43.448Z,16.33
2022-11-13T14:31:35.302Z,17.03
2022-11-13T14:34:24.108Z,17.07
2022-11-13T14:37:36.105Z,17.13
2022-11-13T14:40:31.827Z,15.80
2022-11-13T14:43:28.169Z,15.30
2022-11-13T14:46:44.628Z,15.00
2022-11-13T14:49:36.784Z,12.70
2022-11-13T14:52:29.310Z,13.33
2022-11-13T14:55:25.033Z,14.03
2022-11-13T14:58:14.316Z,14.77
2022-11-13T15:01:32.624Z,13.57
2022-11-13T15:04:19.494Z,15.50
2022-11-13T15:07:30.168Z,13.97
2022-11-13T15:10:20.191Z,13.03
2022-11-13T15:13:17.153Z,12.90
2022-11-13T15:16:03.521Z,12.63
2022-11-13T15:18:53.305Z,12.53
2022-11-13T15:21:44.894Z,12.10
2022-11-13T15:24:34.015Z,12.13
2022-11-13T15:27:20.880Z,11.87
2022-11-13T15:30:07.428Z,12.17
2022-11-13T15:32:54.863Z,13.23
2022-11-13T15:35:44.451Z,12.07
2022-11-13T15:38:31.396Z,11.23
2022-11-13T15:41:22.988Z,12.23
2022-11-13T15:44:14.994Z,11.57
2022-11-13T15:47:01.477Z,11.80
2022-11-13T15:50:09.861Z,11.50
2022-11-13T15:52:54.625Z,11.37
2022-11-13T15:55:42.128Z,11.63
2022-11-13T15:58:33.483Z,11.00
2022-11-13T16:01:21.567Z,12.93
2022-11-13T16:04:08.474Z,13.30
2022-11-13T16:06:55.448Z,12.17
2022-11-13T16:09:41.973Z,12.03
2022-11-13T16:12:28.646Z,14.00
2022-11-13T16:15:16.994Z,14.20
2022-11-13T16:18:03.495Z,12.03
2022-11-13T16:20:49.833Z,11.70
2022-11-13T16:23:36.967Z,12.27
2022-11-13T16:26:25.854Z,15.17
2022-11-13T16:29:20.937Z,13.73
2022-11-13T16:32:13.739Z,13.77
2022-11-13T16:35:00.922Z,18.37
2022-11-13T16:37:47.356Z,14.87
2022-11-13T16:40:34.203Z,13.67
2022-11-13T16:43:20.903Z,11.20
2022-11-13T16:46:31.606Z,12.00
2022-11-13T16:49:21.222Z,12.43
2022-11-13T16:52:08.344Z,12.47
2022-11-13T16:54:54.478Z,11.97
2022-11-13T16:57:41.746Z,11.70
2022-11-13T17:00:28.024Z,11.27
2022-11-13T17:03:14.641Z,12.53
2022-11-13T17:06:01.064Z,12.07
2022-11-13T17:08:50.287Z,12.23
2022-11-13T17:11:36.543Z,12.57
2022-11-13T17:14:23.216Z,11.80
2022-11-13T17:17:13.730Z,13.13
2022-11-13T17:20:00.332Z,15.77
2022-11-13T17:22:48.641Z,13.23
2022-11-13T17:25:35.191Z,13.20
2022-11-13T17:28:21.689Z,13.43
2022-11-13T17:31:12.873Z,13.23
2022-11-13T17:33:59.031Z,12.93
2022-11-13T17:36:46.105Z,11.93
2022-11-13T17:39:32.863Z,12.20
2022-11-13T17:42:19.813Z,17.67
2022-11-13T17:45:06.444Z,17.43
2022-11-13T17:47:53.369Z,15.43
2022-11-13T17:50:40.403Z,14.67
2022-11-13T17:53:27.798Z,16.07
2022-11-13T17:56:14.850Z,16.60
2022-11-13T17:59:02.581Z,15.97
2022-11-13T18:01:49.116Z,15.63
2022-11-13T18:04:36.383Z,17.93
2022-11-13T18:07:22.693Z,17.03
2022-11-13T18:10:11.112Z,16.83
2022-11-13T18:12:57.518Z,16.30
2022-11-13T18:15:44.906Z,17.33
2022-11-13T18:18:30.980Z,17.77
2022-11-13T18:21:23.741Z,16.93
2022-11-13T18:24:16.951Z,15.40
2022-11-13T18:27:06.641Z,18.97
2022-11-13T18:29:53.217Z,18.47
2022-11-13T18:32:40.436Z,16.13
2022-11-13T18:35:27.275Z,17.23
2022-11-13T18:38:13.863Z,15.87
2022-11-13T18:51:38.530Z,22.17
2022-11-13T18:54:27.620Z,20.67
2022-11-13T18:57:16.016Z,21.37
2022-11-13T19:00:04.388Z,20.50
2022-11-13T19:02:53.662Z,22.97
2022-11-13T19:05:48.988Z,20.20
2022-11-13T19:08:40.747Z,20.20
2022-11-13T19:11:33.165Z,19.53
2022-11-13T19:14:21.247Z,19.43
2022-11-13T19:17:13.096Z,19.70
2022-11-13T19:20:00.359Z,22.77
2022-11-13T19:22:49.230Z,19.00
2022-11-13T19:25:37.388Z,26.97
2022-11-13T19:28:26.199Z,21.57
2022-11-13T19:31:17.631Z,19.87
2022-11-13T19:34:08.813Z,19.53
2022-11-13T19:36:55.397Z,19.43
2022-11-13T19:39:42.251Z,18.43
2022-11-13T19:42:28.266Z,19.67
2022-11-13T19:45:14.927Z,18.10
2022-11-13T19:48:01.382Z,19.73
2022-11-13T19:50:48.528Z,19.33
2022-11-13T19:53:34.709Z,16.90
2022-11-13T19:56:22.939Z,17.30
2022-11-13T19:59:11.953Z,13.90
2022-11-13T20:01:58.710Z,13.23
2022-11-13T20:04:45.453Z,15.50
2022-11-13T20:07:31.931Z,13.67
2022-11-13T20:10:18.527Z,13.37
2022-11-13T20:13:05.788Z,11.63
2022-11-13T20:15:55.112Z,9.87
2022-11-13T20:18:42.542Z,9.27
2022-11-13T20:21:31.640Z,9.57
2022-11-13T20:24:18.727Z,9.07
2022-11-13T20:27:04.766Z,9.67
2022-11-13T20:29:51.116Z,9.27
2022-11-13T20:32:41.451Z,9.60
2022-11-13T20:35:29.131Z,10.90
2022-11-13T20:38:16.512Z,12.77
2022-11-13T20:41:07.399Z,13.57
2022-11-13T20:43:55.949Z,12.53
2022-11-13T20:46:43.705Z,13.77
2022-11-13T20:49:31.479Z,13.97
2022-11-13T20:52:18.369Z,13.20
2022-11-13T20:55:05.962Z,14.37
2022-11-13T20:57:53.316Z,21.33
2022-11-13T21:00:39.577Z,85.33
2022-11-13T21:03:26.670Z,30.47
2022-11-13T21:06:19.247Z,14.93
2022-11-13T21:09:05.978Z,18.20
2022-11-13T21:11:52.513Z,13.00
2022-11-13T21:14:39.228Z,13.07
2022-11-13T21:17:25.435Z,11.97
2022-11-13T21:20:13.051Z,11.03
2022-11-13T21:22:59.673Z,11.50
2022-11-13T21:25:46.601Z,14.70
2022-11-13T21:28:34.233Z,13.60
2022-11-13T21:31:23.083Z,15.30
2022-11-13T21:34:10.402Z,12.73
2022-11-13T21:36:57.165Z,10.57
2022-11-13T21:39:43.408Z,14.47
2022-11-13T21:42:30.038Z,11.93
2022-11-13T21:45:16.630Z,12.27
2022-11-13T21:48:03.351Z,10.50
2022-11-13T21:50:49.642Z,13.90
2022-11-13T21:53:37.402Z,13.97
2022-11-13T21:56:24.602Z,12.63
2022-11-13T21:59:10.999Z,11.57
2022-11-13T22:01:58.140Z,12.93
2022-11-13T22:04:44.722Z,13.27
2022-11-13T22:07:30.610Z,11.30
2022-11-13T22:10:17.745Z,11.83
2022-11-13T22:13:03.902Z,12.53
2022-11-13T22:15:51.312Z,12.87
2022-11-13T22:18:37.448Z,12.73
2022-11-13T22:21:25.666Z,13.00
2022-11-13T22:24:13.084Z,13.00
2022-11-13T22:27:00.759Z,12.37
2022-11-13T22:29:47.985Z,11.43
2022-11-13T22:32:34.950Z,12.07
2022-11-13T22:35:21.796Z,11.83
2022-11-13T22:38:09.403Z,12.77
2022-11-13T22:41:01.742Z,12.80
2022-11-13T22:43:54.138Z,13.13
2022-11-13T22:46:40.688Z,12.57
2022-11-13T22:49:26.985Z,11.23
2022-11-13T22:52:13.138Z,12.20
2022-11-13T22:54:59.349Z,12.07
2022-11-13T22:57:45.300Z,11.80
2022-11-13T23:00:32.167Z,13.20
2022-11-13T23:03:17.860Z,12.97
2022-11-13T23:06:04.907Z,13.73
2022-11-13T23:08:51.860Z,14.33
2022-11-13T23:11:39.687Z,13.60
2022-11-13T23:14:25.932Z,12.40
2022-11-13T23:17:12.093Z,14.43
2022-11-13T23:19:57.953Z,15.00
2022-11-13T23:22:44.565Z,13.63
2022-11-13T23:25:33.299Z,14.03
2022-11-13T23:28:19.252Z,14.90
2022-11-13T23:31:05.674Z,14.73
2022-11-13T23:33:52.098Z,14.63
2022-11-13T23:36:38.147Z,13.47
2022-11-13T23:39:24.614Z,14.80
2022-11-13T23:42:10.868Z,16.13
2022-11-13T23:44:56.992Z,14.63
2022-11-13T23:47:44.016Z,13.90
2022-11-13T23:50:30.786Z,13.73
2022-11-13T23:53:17.629Z,14.63
2022-11-13T23:56:04.024Z,15.20
2022-11-13T23:58:52.731Z,15.27
